createdAt,value
2022-11-16T00:04:30.131Z,62.61
2022-11-16T00:09:33.573Z,62.82
2022-11-16T00:14:40.519Z,62.94
2022-11-16T00:19:43.631Z,63.10
2022-11-16T00:24:47.269Z,63.13
2022-11-16T00:29:52.350Z,62.87
2022-11-16T00:34:55.627Z,63.31
2022-11-16T00:39:57.953Z,63.31
2022-11-16T00:45:01.538Z,63.41
2022-11-16T00:50:04.025Z,63.67
2022-11-16T00:55:06.678Z,63.29
2022-11-16T01:00:11.827Z,64.10
2022-11-16T01:05:17.343Z,63.40
2022-11-16T01:10:23.187Z,63.38
2022-11-16T01:15:28.118Z,63.61
2022-11-16T01:20:32.506Z,63.32
2022-11-16T01:25:44.662Z,63.50
2022-11-16T01:30:49.076Z,63.47
2022-11-16T01:35:53.817Z,63.46
2022-11-16T01:40:57.388Z,63.25
2022-11-16T01:46:01.154Z,63.54
2022-11-16T01:51:09.781Z,63.96
2022-11-16T01:56:13.211Z,63.95
2022-11-16T02:05:33.879Z,63.43
2022-11-16T02:11:04.935Z,63.93
2022-11-16T02:16:38.875Z,64.61
2022-11-16T02:22:01.242Z,63.76
2022-11-16T02:27:16.048Z,63.64
2022-11-16T02:32:36.463Z,63.89
2022-11-16T02:37:45.077Z,63.95
2022-11-16T02:43:01.833Z,63.55
2022-11-16T02:48:14.904Z,63.56
2022-11-16T02:53:20.606Z,63.94
2022-11-16T02:58:26.089Z,63.99
2022-11-16T03:03:43.749Z,63.65
2022-11-16T03:08:55.357Z,63.70
2022-11-16T03:14:11.360Z,63.69
2022-11-16T03:19:23.594Z,63.43
2022-11-16T03:29:56.382Z,63.36
2022-11-16T03:35:14.811Z,63.47
2022-11-16T03:40:19.825Z,63.42
2022-11-16T03:45:25.633Z,63.62
2022-11-16T03:50:30.367Z,63.72
2022-11-16T03:55:33.661Z,63.72
2022-11-16T04:00:40.900Z,63.96
2022-11-16T04:08:05.934Z,63.97
2022-11-16T04:13:51.362Z,63.86
2022-11-16T04:19:16.838Z,64.05
2022-11-16T04:24:27.119Z,64.34
2022-11-16T04:29:37.411Z,64.69
2022-11-16T04:35:11.106Z,64.74
2022-11-16T04:40:21.886Z,64.79
2022-11-16T04:45:47.756Z,65.07
2022-11-16T04:50:54.661Z,64.96
2022-11-16T04:56:01.860Z,65.02
2022-11-16T05:01:11.736Z,65.32
2022-11-16T05:06:20.019Z,65.59
2022-11-16T05:11:34.860Z,65.66
2022-11-16T05:17:04.778Z,65.70
2022-11-16T05:22:12.186Z,65.58
2022-11-16T05:27:20.752Z,65.48
2022-11-16T05:32:31.069Z,65.31
2022-11-16T05:37:40.249Z,64.85
2022-11-16T05:42:48.289Z,64.58
2022-11-16T05:47:56.968Z,64.68
2022-11-16T05:53:02.501Z,64.22
2022-11-16T05:58:09.202Z,63.94
2022-11-16T06:08:41.815Z,63.75
2022-11-16T06:13:50.368Z,63.65
2022-11-16T06:19:00.806Z,63.22
2022-11-16T06:24:10.181Z,63.17
2022-11-16T06:29:24.971Z,62.67
2022-11-16T06:34:43.907Z,62.69
2022-11-16T06:39:51.774Z,62.88
2022-11-16T06:45:00.810Z,63.05
2022-11-16T06:50:21.469Z,63.23
2022-11-16T06:55:30.166Z,63.15
2022-11-16T07:00:41.157Z,63.21
2022-11-16T07:05:47.874Z,63.39
2022-11-16T07:11:16.191Z,63.41
2022-11-16T07:16:21.440Z,63.60
2022-11-16T07:21:40.237Z,63.53
2022-11-16T07:26:53.093Z,63.39
2022-11-16T07:32:05.034Z,63.52
2022-11-16T07:37:51.015Z,63.16
2022-11-16T07:43:05.502Z,63.50
2022-11-16T07:48:29.291Z,62.77
2022-11-16T07:54:02.149Z,63.06
2022-11-16T07:59:13.535Z,62.67
2022-11-16T08:04:26.367Z,62.99
2022-11-16T08:09:32.226Z,62.51
2022-11-16T08:14:40.007Z,62.63
2022-11-16T08:19:47.796Z,62.32
2022-11-16T08:24:59.182Z,62.18
2022-11-16T08:36:02.888Z,61.01
2022-11-16T08:41:14.442Z,57.06
2022-11-16T08:46:22.700Z,57.79
2022-11-16T08:51:42.759Z,58.55
2022-11-16T08:56:45.849Z,58.10
2022-11-16T09:01:55.496Z,58.08
2022-11-16T09:07:03.483Z,56.54
2022-11-16T09:12:07.496Z,56.92
2022-11-16T09:17:22.785Z,56.03
2022-11-16T09:22:35.877Z,56.64
2022-11-16T09:27:45.033Z,56.12
2022-11-16T09:32:48.612Z,54.73
2022-11-16T09:37:56.089Z,54.40
2022-11-16T09:43:24.893Z,51.62
2022-11-16T09:48:30.032Z,52.03
2022-11-16T09:53:47.843Z,50.31
2022-11-16T09:59:18.559Z,48.85
2022-11-16T10:04:44.040Z,48.76
2022-11-16T10:09:53.630Z,50.66
2022-11-16T10:15:33.318Z,47.66
2022-11-16T10:21:24.501Z,47.50
2022-11-16T10:26:48.725Z,45.87
2022-11-16T10:32:35.898Z,43.95
2022-11-16T10:37:48.487Z,44.66
2022-11-16T10:43:41.179Z,41.45
2022-11-16T10:49:43.374Z,39.54
2022-11-16T10:54:53.659Z,43.26
2022-11-16T11:00:12.674Z,44.39
2022-11-16T11:05:30.637Z,43.31
2022-11-16T11:10:44.458Z,41.85
2022-11-16T11:15:54.273Z,42.07
2022-11-16T11:21:34.867Z,38.25
2022-11-16T11:26:55.678Z,40.51
2022-11-16T11:32:24.154Z,40.02
2022-11-16T11:37:41.340Z,39.75
2022-11-16T11:43:04.970Z,38.00
2022-11-16T11:54:11.539Z,40.25
2022-11-16T11:59:25.939Z,38.92
2022-11-16T12:05:15.255Z,39.80
2022-11-16T12:10:27.831Z,37.98
2022-11-16T12:16:02.646Z,38.58
2022-11-16T12:21:28.010Z,39.33
2022-11-16T12:27:21.201Z,38.82
2022-11-16T12:32:51.105Z,38.92
2022-11-16T12:38:14.600Z,38.00
2022-11-16T12:43:58.654Z,39.39
2022-11-16T12:49:44.411Z,44.42
2022-11-16T12:55:26.866Z,45.98
2022-11-16T13:00:41.828Z,47.19
2022-11-16T13:06:19.271Z,48.33
2022-11-16T13:11:40.632Z,48.74
2022-11-16T13:16:49.911Z,49.35
2022-11-16T13:22:18.335Z,51.46
2022-11-16T13:34:08.746Z,51.02
2022-11-16T13:40:17.108Z,50.54
2022-11-16T13:45:23.617Z,50.02
2022-11-16T13:50:37.530Z,50.17
2022-11-16T13:55:54.589Z,50.63
2022-11-16T14:01:12.297Z,49.57
2022-11-16T14:06:27.835Z,51.62
2022-11-16T14:11:40.571Z,51.33
2022-11-16T14:16:48.631Z,50.01
2022-11-16T14:22:07.449Z,48.29
2022-11-16T14:27:37.152Z,48.18
2022-11-16T14:32:55.762Z,47.73
2022-11-16T14:38:32.070Z,47.60
2022-11-16T14:43:49.922Z,48.66
2022-11-16T14:49:00.029Z,49.28
2022-11-16T14:54:17.435Z,49.13
2022-11-16T14:59:21.954Z,49.81
2022-11-16T15:04:30.474Z,48.65
2022-11-16T15:09:51.297Z,48.62
2022-11-16T15:15:16.200Z,48.65
2022-11-16T15:20:27.813Z,48.88
2022-11-16T15:25:53.507Z,48.68
2022-11-16T15:31:14.003Z,48.67
2022-11-16T15:42:08.627Z,49.46
2022-11-16T15:47:17.219Z,47.71
2022-11-16T15:52:50.458Z,45.01
2022-11-16T15:58:28.245Z,43.96
2022-11-16T16:04:08.687Z,43.54
2022-11-16T16:09:28.396Z,42.62
2022-11-16T16:14:57.549Z,41.20
2022-11-16T16:20:08.191Z,42.21
2022-11-16T16:25:32.694Z,41.47
2022-11-16T16:30:40.690Z,43.87
2022-11-16T16:35:56.157Z,43.35
2022-11-16T16:41:08.351Z,43.44
2022-11-16T16:46:17.853Z,43.62
2022-11-16T16:51:27.055Z,43.62
2022-11-16T16:56:42.624Z,43.60
2022-11-16T17:01:52.416Z,42.71
2022-11-16T17:06:58.907Z,43.27
2022-11-16T17:12:13.274Z,43.15
2022-11-16T17:17:30.684Z,43.59
2022-11-16T17:22:36.227Z,43.69
2022-11-16T17:27:46.281Z,44.08
2022-11-16T17:32:55.889Z,43.25
2022-11-16T17:38:00.494Z,44.12
2022-11-16T17:43:05.082Z,44.21
2022-11-16T17:48:18.886Z,44.06
2022-11-16T17:53:32.350Z,44.30
2022-11-16T18:03:56.856Z,45.18
2022-11-16T18:09:07.599Z,45.25
2022-11-16T18:14:25.714Z,45.39
2022-11-16T18:19:35.935Z,45.62
2022-11-16T18:24:45.556Z,46.73
2022-11-16T18:29:52.851Z,46.74
2022-11-16T18:35:22.930Z,46.01
2022-11-16T18:40:32.292Z,46.56
2022-11-16T18:45:35.580Z,46.87
2022-11-16T18:50:41.543Z,46.78
2022-11-16T18:55:57.855Z,46.76
2022-11-16T19:01:07.296Z,46.83
2022-11-16T19:06:22.459Z,46.98
2022-11-16T19:11:35.064Z,47.32
2022-11-16T19:16:58.298Z,47.49
2022-11-16T19:22:07.515Z,47.61
2022-11-16T19:27:14.744Z,47.79
2022-11-16T19:32:21.952Z,47.90
2022-11-16T19:37:28.335Z,47.90
2022-11-16T19:42:36.288Z,47.72
2022-11-16T19:47:52.519Z,48.06
2022-11-16T19:53:03.848Z,48.53
2022-11-16T19:58:19.709Z,48.09
2022-11-16T20:03:23.185Z,48.08
2022-11-16T20:08:32.616Z,47.87
2022-11-16T20:13:39.686Z,48.00
2022-11-16T20:18:44.132Z,47.93
2022-11-16T20:23:49.878Z,48.01
2022-11-16T20:28:57.992Z,48.29
2022-11-16T20:34:07.880Z,48.17
2022-11-16T20:39:23.699Z,47.98
2022-11-16T20:44:29.776Z,48.25
2022-11-16T20:49:55.941Z,48.40
2022-11-16T20:55:06.381Z,48.30
2022-11-16T21:00:12.457Z,48.41
2022-11-16T21:05:14.693Z,48.48
2022-11-16T21:10:21.087Z,48.60
2022-11-16T21:15:26.493Z,48.46
2022-11-16T21:20:40.351Z,48.59
2022-11-16T21:25:46.800Z,48.84
2022-11-16T21:31:03.010Z,48.62
2022-11-16T21:36:31.971Z,48.79
2022-11-16T21:41:39.592Z,48.91
2022-11-16T21:46:44.185Z,49.40
2022-11-16T21:51:58.374Z,49.30
2022-11-16T21:57:00.301Z,49.66
2022-11-16T22:02:03.131Z,49.53
2022-11-16T22:07:27.092Z,49.59
2022-11-16T22:12:34.559Z,49.67
2022-11-16T22:17:49.437Z,49.88
2022-11-16T22:22:53.367Z,50.02
2022-11-16T22:28:19.841Z,50.34
2022-11-16T22:33:21.879Z,50.18
2022-11-16T22:38:31.255Z,50.34
2022-11-16T22:43:38.933Z,50.52
2022-11-16T22:48:51.815Z,50.70
2022-11-16T22:54:07.300Z,50.67
2022-11-16T22:59:13.779Z,51.09
2022-11-16T23:04:27.654Z,51.13
2022-11-16T23:09:33.846Z,51.23
2022-11-16T23:14:58.862Z,51.40
2022-11-16T23:20:24.818Z,51.51
2022-11-16T23:25:52.018Z,51.56
2022-11-16T23:31:17.528Z,51.65
2022-11-16T23:36:23.071Z,52.02
2022-11-16T23:41:51.180Z,52.14
2022-11-16T23:46:56.443Z,52.18
2022-11-16T23:52:12.726Z,52.23
2022-11-16T23:57:24.915Z,52.50
